Time;durP1;ratioP1;P1;durP2;ratioP2;P2;SDS_P1;SDS_P2;PMS_P1;PMS_P2;Temp;Humidity;BMP_temperature;BMP_pressure;BME280_temperature;BME280_humidity;BME280_pressure;Samples;Min_cycle;Max_cycle;Signal;HPM_P1;HPM_P2
2021/01/18 00:01:13;;;;;;;;;;;;;;;2.89;53.94;101260.66;5055911;28;19913;-80
2021/01/18 00:03:58;;;;;;;;;;;;;;;3.13;53.33;101253.94;5057963;28;19917;-80
2021/01/18 00:06:42;;;;;;;;;;;;;;;2.98;52.67;101256.44;5055912;28;19912;-80
2021/01/18 00:09:26;;;;;;;;;;;;;;;2.86;54.15;101261.94;5060275;28;19913;-81
2021/01/18 00:12:11;;;;;;;;;;;;;;;2.87;53.10;101249.34;5055925;28;19924;-82
2021/01/18 00:14:55;;;;;;;;;;;;;;;3.26;53.00;101255.41;5047309;28;19913;-82
2021/01/18 00:17:39;;;;;;;;;;;;;;;2.90;53.33;101260.38;5045737;28;19912;-81
2021/01/18 00:20:24;;;;;;;;;;;;;;;3.12;53.38;101263.06;5057341;28;19928;-81
2021/01/18 00:23:08;;;;;;;;;;;;;;;3.22;52.86;101260.47;5054630;28;19913;-81
2021/01/18 00:25:53;;;;;;;;;;;;;;;3.09;52.40;101263.56;5045926;28;19912;-78
2021/01/18 00:28:37;;;;;;;;;;;;;;;3.32;51.33;101262.44;5043576;28;20291;-79
2021/01/18 00:31:21;;;;;;;;;;;;;;;2.94;51.77;101252.66;5053897;28;19920;-81
2021/01/18 00:34:06;;;;;;;;;;;;;;;2.95;51.96;101254.25;5045314;28;19912;-80
2021/01/18 00:36:51;;;;;;;;;;;;;;;3.03;52.05;101253.81;5058021;28;19916;-79
2021/01/18 00:39:36;;;;;;;;;;;;;;;2.95;52.07;101259.63;5051198;28;19913;-81
2021/01/18 00:42:21;;;;;;;;;;;;;;;3.16;50.89;101255.28;5045321;28;19916;-82
2021/01/18 00:45:06;;;;;;;;;;;;;;;2.99;51.32;101258.09;5046356;28;19917;-78
2021/01/18 00:47:55;;;;;;;;;;;;;;;2.81;51.70;101261.06;5060996;28;19967;-81
2021/01/18 00:50:40;;;;;;;;;;;;;;;2.70;51.78;101264.69;5023706;28;19913;-81
2021/01/18 00:53:25;;;;;;;;;;;;;;;2.58;52.35;101260.28;5049454;28;19912;-79
2021/01/18 00:56:12;;;;;;;;;;;;;;;2.77;51.40;101254.59;5041698;28;19912;-80
2021/01/18 00:59:07;;;;;;;;;;;;;;;2.65;51.37;101256.56;5053745;28;20371;-79
2021/01/18 01:02:18;;;;;;;;;;;;;;;2.57;51.39;101258.66;5046486;28;19912;-80
2021/01/18 01:05:05;;;;;;;;;;;;;;;2.56;51.89;101251.66;5053031;28;19916;-79
2021/01/18 01:07:52;;;;;;;;;;;;;;;2.63;51.10;101250.66;5053193;28;19913;-79
2021/01/18 01:10:37;;;;;;;;;;;;;;;2.72;53.29;101259.91;5040540;28;19913;-81
2021/01/18 01:13:21;;;;;;;;;;;;;;;2.88;54.45;101261.72;5037065;28;19916;-78
2021/01/18 01:16:07;;;;;;;;;;;;;;;2.86;51.93;101269.19;5057645;28;19924;-79
2021/01/18 01:18:52;;;;;;;;;;;;;;;2.90;51.39;101264.94;5052572;28;19921;-79
2021/01/18 01:21:36;;;;;;;;;;;;;;;2.76;50.81;101264.50;5045544;28;19913;-80
2021/01/18 01:24:21;;;;;;;;;;;;;;;2.66;51.28;101261.69;5057065;28;19921;-79
2021/01/18 01:27:07;;;;;;;;;;;;;;;2.89;51.20;101264.16;5058288;28;19912;-80
2021/01/18 01:29:54;;;;;;;;;;;;;;;2.85;51.07;101256.81;5045093;28;19917;-80
2021/01/18 01:32:47;;;;;;;;;;;;;;;2.67;51.62;101257.97;5060453;28;19913;-78
2021/01/18 01:35:32;;;;;;;;;;;;;;;2.45;51.62;101268.66;5051705;28;19913;-79
2021/01/18 01:38:16;;;;;;;;;;;;;;;2.73;52.57;101265.03;5064028;28;19913;-79
2021/01/18 01:41:02;;;;;;;;;;;;;;;2.77;54.03;101266.16;5042768;28;19913;-79
2021/01/18 01:43:46;;;;;;;;;;;;;;;2.82;53.80;101276.13;5048978;28;19917;-78
2021/01/18 01:46:31;;;;;;;;;;;;;;;2.78;50.50;101270.47;5061964;28;19928;-78
2021/01/18 01:49:17;;;;;;;;;;;;;;;2.71;51.50;101271.69;5040933;28;19917;-78
2021/01/18 01:52:07;;;;;;;;;;;;;;;2.66;51.32;101277.00;5039785;28;19913;-80
2021/01/18 01:54:52;;;;;;;;;;;;;;;2.87;51.18;101271.63;5056837;28;19916;-79
2021/01/18 01:57:36;;;;;;;;;;;;;;;2.69;51.32;101269.28;5055962;28;19916;-79
2021/01/18 02:00:22;;;;;;;;;;;;;;;2.72;51.64;101276.00;5053554;28;19912;-78
2021/01/18 02:03:11;;;;;;;;;;;;;;;2.64;51.72;101269.22;5108312;23;19923;-79
2021/01/18 02:05:56;;;;;;;;;;;;;;;2.81;53.57;101279.88;5119130;27;19915;-79
2021/01/18 02:08:41;;;;;;;;;;;;;;;2.77;51.90;101281.44;5105642;28;19911;-79
2021/01/18 02:11:25;;;;;;;;;;;;;;;2.72;51.56;101284.06;5128128;27;19911;-79
2021/01/18 02:14:28;;;;;;;;;;;;;;;2.65;53.69;101286.09;5114916;28;19912;-78
2021/01/18 02:17:18;;;;;;;;;;;;;;;2.49;53.36;101285.91;5111154;28;19916;-79
2021/01/18 02:20:22;;;;;;;;;;;;;;;2.62;52.18;101284.75;5109094;28;19911;-79
2021/01/18 02:23:25;;;;;;;;;;;;;;;2.73;50.91;101291.06;5102215;28;19912;-79
2021/01/18 02:26:09;;;;;;;;;;;;;;;2.74;50.85;101290.00;5113865;28;19916;-78
2021/01/18 02:29:04;;;;;;;;;;;;;;;2.79;51.09;101296.25;5098987;28;19912;-79
2021/01/18 02:32:02;;;;;;;;;;;;;;;2.75;50.57;101291.59;5108476;28;20606;-79
2021/01/18 02:35:02;;;;;;;;;;;;;;;2.50;51.67;101294.75;5094491;28;19912;-79
2021/01/18 02:37:50;;;;;;;;;;;;;;;2.65;51.80;101292.28;5088609;28;19911;-79
2021/01/18 02:40:41;;;;;;;;;;;;;;;2.64;51.51;101289.88;5092686;28;19912;-78
2021/01/18 02:43:33;;;;;;;;;;;;;;;2.46;51.60;101289.09;5094426;28;19912;-79
2021/01/18 02:46:20;;;;;;;;;;;;;;;2.71;50.97;101282.44;5094804;28;20306;-79
2021/01/18 02:49:06;;;;;;;;;;;;;;;2.43;53.48;101278.88;5097729;28;19912;-79
2021/01/18 02:52:03;;;;;;;;;;;;;;;2.73;51.82;101283.81;5091298;28;19920;-78
2021/01/18 02:54:47;;;;;;;;;;;;;;;2.74;50.89;101276.59;5096671;28;19912;-78
2021/01/18 02:57:34;;;;;;;;;;;;;;;2.42;52.01;101289.84;5100290;28;19912;-79
2021/01/18 03:00:24;;;;;;;;;;;;;;;2.50;51.72;101284.84;5105550;28;19912;-78
2021/01/18 03:03:13;;;;;;;;;;;;;;;2.21;52.24;101282.53;5106065;28;19912;-78
2021/01/18 03:06:06;;;;;;;;;;;;;;;2.12;52.36;101284.84;5118212;28;19916;-79
2021/01/18 03:08:55;;;;;;;;;;;;;;;2.23;52.27;101283.94;5116091;28;19911;-79
2021/01/18 03:11:43;;;;;;;;;;;;;;;2.42;51.47;101284.47;5115373;28;19911;-79
2021/01/18 03:14:35;;;;;;;;;;;;;;;2.48;51.14;101281.63;5091409;28;19916;-79
2021/01/18 03:17:21;;;;;;;;;;;;;;;2.23;53.29;101288.47;5088593;28;19912;-78
2021/01/18 03:20:09;;;;;;;;;;;;;;;2.37;54.47;101295.13;5101629;28;19912;-79
2021/01/18 03:23:00;;;;;;;;;;;;;;;2.30;54.46;101297.16;5112940;28;19912;-79
2021/01/18 03:25:52;;;;;;;;;;;;;;;2.06;53.10;101300.03;5107871;28;19916;-79
2021/01/18 03:28:37;;;;;;;;;;;;;;;2.25;52.21;101297.91;5112661;28;19911;-79
2021/01/18 03:31:23;;;;;;;;;;;;;;;2.44;51.93;101296.56;5118746;28;19915;-78
2021/01/18 03:34:08;;;;;;;;;;;;;;;2.35;51.67;101292.69;5093868;28;19912;-79
2021/01/18 03:36:53;;;;;;;;;;;;;;;2.46;51.53;101293.63;5096927;28;20381;-79
2021/01/18 03:39:37;;;;;;;;;;;;;;;2.23;52.27;101291.97;5093760;28;19911;-79
2021/01/18 03:42:22;;;;;;;;;;;;;;;2.36;52.41;101296.19;5113004;28;19912;-78
2021/01/18 03:45:07;;;;;;;;;;;;;;;2.45;50.77;101298.19;5094601;28;20305;-82
2021/01/18 03:47:51;;;;;;;;;;;;;;;2.49;50.67;101301.19;5105803;28;19915;-80
2021/01/18 03:50:36;;;;;;;;;;;;;;;2.49;53.63;101304.69;5109069;28;19912;-79
2021/01/18 03:53:21;;;;;;;;;;;;;;;2.08;54.44;101310.53;5114040;28;19912;-80
2021/01/18 03:56:06;;;;;;;;;;;;;;;2.17;53.06;101311.75;5116928;28;19915;-79
2021/01/18 03:58:50;;;;;;;;;;;;;;;2.42;51.30;101308.63;5108860;28;19912;-79
2021/01/18 04:01:38;;;;;;;;;;;;;;;1.94;52.80;101315.38;5099886;28;19912;-79
2021/01/18 04:04:23;;;;;;;;;;;;;;;1.56;54.24;101318.75;5082157;28;19924;-80
2021/01/18 04:07:10;;;;;;;;;;;;;;;2.48;51.68;101303.09;5101347;28;20374;-79
2021/01/18 04:09:55;;;;;;;;;;;;;;;2.43;51.28;101299.50;5097938;28;19912;-80
2021/01/18 04:12:40;;;;;;;;;;;;;;;2.40;51.91;101306.16;5101385;28;19912;-79
2021/01/18 04:15:26;;;;;;;;;;;;;;;1.94;54.17;101306.53;5103207;28;19912;-81
2021/01/18 04:18:10;;;;;;;;;;;;;;;2.35;51.57;101311.47;5106601;28;20425;-79
2021/01/18 04:20:55;;;;;;;;;;;;;;;2.14;52.65;101323.75;5113710;28;19912;-80
2021/01/18 04:23:39;;;;;;;;;;;;;;;2.15;52.08;101321.88;5117662;28;19911;-79
2021/01/18 04:26:24;;;;;;;;;;;;;;;2.00;52.52;101332.38;5099465;28;19912;-79
2021/01/18 04:29:08;;;;;;;;;;;;;;;1.93;52.37;101337.88;5098518;28;19911;-80
2021/01/18 04:31:53;;;;;;;;;;;;;;;1.75;54.02;101324.72;5117242;28;19931;-79
2021/01/18 04:34:38;;;;;;;;;;;;;;;1.37;54.85;101336.09;5105083;28;19912;-79
2021/01/18 04:37:22;;;;;;;;;;;;;;;2.23;52.68;101337.59;5096784;28;19916;-80
2021/01/18 04:40:07;;;;;;;;;;;;;;;2.20;51.75;101343.44;5090426;28;19912;-79
2021/01/18 04:42:52;;;;;;;;;;;;;;;1.84;52.45;101341.22;5103390;28;19911;-79
2021/01/18 04:45:37;;;;;;;;;;;;;;;1.95;51.87;101341.16;5112195;28;19916;-78
2021/01/18 04:48:22;;;;;;;;;;;;;;;2.05;51.70;101351.22;5115210;28;19911;-79
2021/01/18 04:51:07;;;;;;;;;;;;;;;1.89;52.21;101349.34;5105877;28;19912;-79
2021/01/18 04:53:53;;;;;;;;;;;;;;;1.89;52.53;101352.84;5096208;28;19912;-79
2021/01/18 04:56:49;;;;;;;;;;;;;;;1.77;52.66;101360.16;5102264;28;19912;-79
2021/01/18 04:59:37;;;;;;;;;;;;;;;1.81;52.15;101363.16;5099547;28;20301;-79
2021/01/18 05:02:23;;;;;;;;;;;;;;;1.71;51.90;101366.47;5113888;28;19919;-79
2021/01/18 05:05:20;;;;;;;;;;;;;;;1.91;53.30;101366.81;5103767;28;19924;-79
2021/01/18 05:08:06;;;;;;;;;;;;;;;1.40;54.21;101366.94;5100275;28;19912;-79
2021/01/18 05:10:50;;;;;;;;;;;;;;;1.88;52.69;101367.28;5095494;28;19911;-79
2021/01/18 05:13:35;;;;;;;;;;;;;;;2.33;50.81;101379.88;5091915;28;19912;-79
2021/01/18 05:16:21;;;;;;;;;;;;;;;1.71;52.64;101387.91;5104948;28;19916;-79
2021/01/18 05:19:10;;;;;;;;;;;;;;;1.77;52.62;101383.47;5113856;28;19912;-79
2021/01/18 05:21:55;;;;;;;;;;;;;;;1.97;52.43;101390.00;5110009;28;19911;-80
2021/01/18 05:24:39;;;;;;;;;;;;;;;1.73;52.95;101391.16;5097213;28;19916;-80
2021/01/18 05:27:23;;;;;;;;;;;;;;;1.72;53.41;101402.94;5100367;28;20300;-79
2021/01/18 05:30:08;;;;;;;;;;;;;;;1.80;52.56;101397.19;5100827;28;19912;-79
2021/01/18 05:32:59;;;;;;;;;;;;;;;1.86;52.22;101403.47;5104596;28;19912;-80
2021/01/18 05:35:48;;;;;;;;;;;;;;;1.65;53.00;101397.72;5095526;28;19912;-78
2021/01/18 05:38:32;;;;;;;;;;;;;;;1.81;52.67;101398.81;5111130;28;19911;-79
2021/01/18 05:41:27;;;;;;;;;;;;;;;1.57;54.02;101402.66;5095832;28;20289;-79
2021/01/18 05:44:12;;;;;;;;;;;;;;;1.87;53.59;101402.41;5104755;28;19924;-79
2021/01/18 05:47:05;;;;;;;;;;;;;;;1.49;52.80;101406.50;5092420;28;19911;-79
2021/01/18 05:49:50;;;;;;;;;;;;;;;1.49;54.29;101405.69;5102987;28;20301;-79
2021/01/18 05:52:34;;;;;;;;;;;;;;;1.46;54.16;101407.00;5084490;28;20373;-79
2021/01/18 05:55:25;;;;;;;;;;;;;;;1.47;53.21;101408.63;5105278;28;19912;-79
2021/01/18 05:58:11;;;;;;;;;;;;;;;1.30;54.34;101402.38;5109351;28;19912;-79
2021/01/18 06:00:55;;;;;;;;;;;;;;;1.51;54.42;101417.00;5098431;28;19912;-80
2021/01/18 06:03:41;;;;;;;;;;;;;;;1.49;55.63;101411.88;5113658;28;19912;-79
2021/01/18 06:06:27;;;;;;;;;;;;;;;1.51;55.44;101419.69;5093536;28;19916;-79
2021/01/18 06:09:12;;;;;;;;;;;;;;;1.43;53.65;101428.06;5103267;28;20381;-79
2021/01/18 06:11:56;;;;;;;;;;;;;;;1.32;53.53;101420.91;5102577;28;19912;-80
2021/01/18 06:14:41;;;;;;;;;;;;;;;1.13;55.22;101436.28;5098389;28;19912;-80
2021/01/18 06:17:25;;;;;;;;;;;;;;;1.00;56.54;101444.59;5101883;28;19912;-79
2021/01/18 06:20:17;;;;;;;;;;;;;;;1.13;55.75;101444.31;5098302;28;19920;-78
2021/01/18 06:23:02;;;;;;;;;;;;;;;1.19;55.42;101444.22;5091835;28;19912;-80
2021/01/18 06:25:48;;;;;;;;;;;;;;;1.25;54.79;101447.81;5088855;28;19916;-79
2021/01/18 06:28:34;;;;;;;;;;;;;;;1.23;54.12;101458.75;5102963;28;19916;-80
2021/01/18 06:31:18;;;;;;;;;;;;;;;1.32;54.52;101458.41;5101819;28;19920;-79
2021/01/18 06:34:05;;;;;;;;;;;;;;;1.54;54.12;101457.53;5102276;28;19915;-79
2021/01/18 06:36:50;;;;;;;;;;;;;;;1.16;54.66;101457.28;5118812;28;19911;-80
2021/01/18 06:39:35;;;;;;;;;;;;;;;1.32;56.21;101456.56;5129620;27;19912;-80
2021/01/18 06:42:20;;;;;;;;;;;;;;;1.19;54.79;101456.78;5114990;28;19911;-80
2021/01/18 06:45:18;;;;;;;;;;;;;;;1.36;57.36;101448.84;5120359;28;19915;-80
2021/01/18 06:48:03;;;;;;;;;;;;;;;1.24;55.13;101454.22;5103292;28;19911;-80
2021/01/18 06:50:48;;;;;;;;;;;;;;;1.10;54.76;101450.16;5114308;28;19912;-80
2021/01/18 06:53:36;;;;;;;;;;;;;;;1.41;56.23;101452.44;5115535;28;20373;-79
2021/01/18 06:56:20;;;;;;;;;;;;;;;1.46;56.63;101454.41;5115632;28;19911;-79
2021/01/18 06:59:05;;;;;;;;;;;;;;;1.30;55.13;101445.25;5115674;28;19911;-80
2021/01/18 07:01:57;;;;;;;;;;;;;;;1.15;55.85;101442.25;5103855;28;19911;-79
2021/01/18 07:04:45;;;;;;;;;;;;;;;1.33;55.70;101444.75;5103542;28;19916;-80
2021/01/18 07:07:32;;;;;;;;;;;;;;;1.36;55.57;101447.00;5101259;28;19912;-80
2021/01/18 07:10:21;;;;;;;;;;;;;;;1.46;55.38;101455.25;5114564;28;19912;-79
2021/01/18 07:13:06;;;;;;;;;;;;;;;1.33;56.32;101460.03;5128878;28;19911;-80
2021/01/18 07:15:52;;;;;;;;;;;;;;;1.30;55.45;101466.69;5114250;28;19911;-80
2021/01/18 07:18:43;;;;;;;;;;;;;;;1.27;55.23;101478.66;5113849;28;19911;-80
2021/01/18 07:21:29;;;;;;;;;;;;;;;1.17;55.81;101474.94;5101349;28;20377;-80
2021/01/18 07:24:15;;;;;;;;;;;;;;;1.22;55.26;101481.22;5099487;28;20373;-79
2021/01/18 07:27:04;;;;;;;;;;;;;;;1.22;55.35;101483.09;5120947;28;19912;-79
2021/01/18 07:29:50;;;;;;;;;;;;;;;1.14;55.17;101492.31;5119313;28;20365;-80
2021/01/18 07:32:35;;;;;;;;;;;;;;;1.07;55.92;101490.78;5102789;28;19912;-79
2021/01/18 07:35:21;;;;;;;;;;;;;;;0.82;56.76;101491.81;5116898;28;19912;-79
2021/01/18 07:38:18;;;;;;;;;;;;;;;0.99;57.32;101496.50;5131230;27;19912;-79
2021/01/18 07:41:06;;;;;;;;;;;;;;;1.00;56.75;101503.50;5117743;28;19912;-79
2021/01/18 07:43:50;;;;;;;;;;;;;;;1.06;56.92;101507.91;5116974;28;19912;-79
2021/01/18 07:46:35;;;;;;;;;;;;;;;1.08;56.63;101495.09;5119669;28;19915;-82
2021/01/18 07:49:22;;;;;;;;;;;;;;;1.20;56.90;101499.41;5103820;28;20389;-81
2021/01/18 07:52:24;;;;;;;;;;;;;;;1.25;57.21;101509.44;5122055;28;19911;-82
2021/01/18 07:55:20;;;;;;;;;;;;;;;1.31;57.33;101516.53;5105069;28;19911;-82
2021/01/18 07:58:15;;;;;;;;;;;;;;;1.36;57.57;101532.72;5117334;28;19911;-83
2021/01/18 08:01:07;;;;;;;;;;;;;;;1.42;58.72;101530.97;5132311;27;19912;-80
2021/01/18 08:04:30;;;;;;;;;;;;;;;;;;;;;
2021/01/18 08:07:55;;;;;;;;;;;;;;;1.70;58.13;101542.56;5046170;28;19917;-86
2021/01/18 08:10:59;;;;;;;;;;;;;;;2.05;57.11;101547.03;5073641;28;19916;-87
2021/01/18 08:13:47;;;;;;;;;;;;;;;2.11;56.82;101554.13;5069381;28;19913;-86
2021/01/18 08:16:39;;;;;;;;;;;;;;;2.19;56.67;101561.78;5054875;28;19913;-86
2021/01/18 08:19:26;;;;;;;;;;;;;;;2.21;56.82;101559.69;5044301;28;19916;-83
2021/01/18 08:22:11;;;;;;;;;;;;;;;2.27;56.33;101556.06;5070305;28;19912;-83
2021/01/18 08:24:56;;;;;;;;;;;;;;;2.14;57.27;101567.06;5054428;28;19917;-84
2021/01/18 08:27:42;;;;;;;;;;;;;;;2.10;57.70;101565.91;5058747;28;19912;-83
2021/01/18 08:30:35;;;;;;;;;;;;;;;2.17;57.60;101576.50;5053681;28;19912;-85
2021/01/18 08:33:25;;;;;;;;;;;;;;;2.09;57.79;101570.44;5075863;28;20367;-85
2021/01/18 08:36:09;;;;;;;;;;;;;;;1.94;57.69;101578.19;5066069;28;19912;-87
2021/01/18 08:39:07;;;;;;;;;;;;;;;1.83;58.71;101575.56;5043635;28;19913;-86
2021/01/18 08:41:52;;;;;;;;;;;;;;;2.08;57.84;101586.81;5054729;28;19913;-87
2021/01/18 08:44:38;;;;;;;;;;;;;;;2.08;57.16;101586.81;5058180;28;19912;-85
2021/01/18 08:47:39;;;;;;;;;;;;;;;2.08;58.59;101597.53;5070581;28;20303;-84
2021/01/18 08:50:24;;;;;;;;;;;;;;;2.01;58.43;101594.97;5045666;28;19917;-86
2021/01/18 08:53:23;;;;;;;;;;;;;;;1.94;58.64;101605.00;5057341;28;20375;-86
2021/01/18 08:56:34;;;;;;;;;;;;;;;2.01;59.57;101602.22;5041111;28;19913;-85
2021/01/18 08:59:19;;;;;;;;;;;;;;;4.07;52.94;101605.91;5053174;28;19913;-81
2021/01/18 09:02:06;;;;;;;;;;;;;;;3.87;50.90;101612.69;5053572;28;19913;-81
2021/01/18 09:04:51;;;;;;;;;;;;;;;3.22;51.85;101603.63;5067699;28;19920;-83
2021/01/18 09:07:36;;;;;;;;;;;;;;;3.49;50.17;101603.78;5055167;28;19913;-82
2021/01/18 09:10:22;;;;;;;;;;;;;;;3.07;50.38;101606.88;5071125;28;19913;-82
2021/01/18 09:13:07;;;;;;;;;;;;;;;3.08;51.72;101619.28;5054699;28;19912;-83
2021/01/18 09:15:53;;;;;;;;;;;;;;;2.25;52.67;101617.19;5070817;28;20061;-80
2021/01/18 09:18:38;;;;;;;;;;;;;;;2.15;52.90;101620.47;5055102;28;19912;-83
2021/01/18 09:21:22;;;;;;;;;;;;;;;3.02;50.70;101620.25;5067890;28;20322;-83
2021/01/18 09:24:07;;;;;;;;;;;;;;;3.05;51.15;101624.31;5068090;28;19905;-83
2021/01/18 09:26:52;;;;;;;;;;;;;;;3.28;51.00;101621.47;5055916;28;19917;-83
2021/01/18 09:29:36;;;;;;;;;;;;;;;2.84;51.52;101629.34;5068311;28;19913;-82
2021/01/18 09:32:20;;;;;;;;;;;;;;;2.70;51.97;101627.16;5071685;28;19912;-83
2021/01/18 09:35:13;;;;;;;;;;;;;;;2.52;53.32;101634.38;5056255;28;19912;-84
2021/01/18 09:37:59;;;;;;;;;;;;;;;2.88;52.89;101625.13;5052709;28;19912;-82
2021/01/18 09:40:44;;;;;;;;;;;;;;;2.94;52.77;101628.69;5057177;28;19912;-83
2021/01/18 09:43:28;;;;;;;;;;;;;;;2.80;53.35;101621.97;5055565;28;19913;-82
2021/01/18 09:46:16;;;;;;;;;;;;;;;2.75;53.47;101621.88;5052636;28;19921;-83
2021/01/18 09:49:01;;;;;;;;;;;;;;;2.84;53.01;101633.91;5051188;28;19927;-83
2021/01/18 09:51:47;;;;;;;;;;;;;;;2.69;53.31;101620.19;5054653;28;19912;-83
2021/01/18 09:54:32;;;;;;;;;;;;;;;2.69;54.41;101621.00;5053833;28;19913;-84
2021/01/18 09:57:17;;;;;;;;;;;;;;;2.79;54.52;101615.00;5056312;28;19913;-83
2021/01/18 10:00:02;;;;;;;;;;;;;;;2.84;53.73;101609.72;5052691;28;19912;-83
2021/01/18 10:02:58;;;;;;;;;;;;;;;3.00;53.14;101611.59;5051881;28;19912;-83
2021/01/18 10:05:44;;;;;;;;;;;;;;;2.98;52.69;101616.41;5065822;28;19917;-83
2021/01/18 10:08:28;;;;;;;;;;;;;;;3.01;52.23;101623.97;5054622;28;19912;-83
2021/01/18 10:11:21;;;;;;;;;;;;;;;3.35;51.94;101614.84;5066566;28;19917;-83
2021/01/18 10:14:16;;;;;;;;;;;;;;;3.20;53.14;101617.31;5067268;28;19913;-83
2021/01/18 10:17:05;;;;;;;;;;;;;;;3.03;53.25;101627.25;5065236;28;19913;-82
2021/01/18 10:20:01;;;;;;;;;;;;;;;3.24;52.07;101623.84;5051619;28;19916;-84
2021/01/18 10:22:45;;;;;;;;;;;;;;;3.08;53.11;101621.97;5051295;28;19925;-84
2021/01/18 10:25:31;;;;;;;;;;;;;;;3.17;52.72;101620.50;5052350;28;19916;-83
2021/01/18 10:28:19;;;;;;;;;;;;;;;3.36;53.11;101618.38;5056575;28;20295;-84
2021/01/18 10:31:03;;;;;;;;;;;;;;;3.43;52.30;101614.47;5055188;28;19920;-83
2021/01/18 10:34:06;;;;;;;;;;;;;;;3.57;52.27;101606.88;5083676;28;19912;-84
2021/01/18 10:36:52;;;;;;;;;;;;;;;3.66;52.36;101604.56;5076455;28;19912;-84
2021/01/18 10:39:40;;;;;;;;;;;;;;;3.69;51.89;101606.78;5074522;28;19912;-83
2021/01/18 10:42:25;;;;;;;;;;;;;;;3.78;52.06;101602.59;5072309;28;20286;-85
2021/01/18 10:45:15;;;;;;;;;;;;;;;3.72;52.79;101601.72;5071901;28;19916;-85
2021/01/18 10:47:59;;;;;;;;;;;;;;;3.53;53.81;101599.53;5072567;28;19912;-86
2021/01/18 10:50:54;;;;;;;;;;;;;;;3.65;53.78;101602.97;5063829;28;19912;-83
2021/01/18 10:53:39;;;;;;;;;;;;;;;3.75;53.45;101600.41;5059316;28;19913;-86
2021/01/18 10:56:29;;;;;;;;;;;;;;;3.83;53.70;101599.97;5064238;28;20378;-86
2021/01/18 10:59:14;;;;;;;;;;;;;;;4.02;53.25;101593.22;5064381;28;19916;-85
2021/01/18 11:02:03;;;;;;;;;;;;;;;4.00;53.17;101589.97;5075563;28;19931;-85
2021/01/18 11:04:48;;;;;;;;;;;;;;;4.10;53.52;101584.72;5064135;28;19912;-84
2021/01/18 11:07:32;;;;;;;;;;;;;;;4.30;52.88;101586.84;5075461;28;19916;-87
2021/01/18 11:10:21;;;;;;;;;;;;;;;4.31;52.39;101585.78;5075601;28;19912;-85
2021/01/18 11:13:08;;;;;;;;;;;;;;;4.35;53.14;101580.69;5079203;28;20286;-85
2021/01/18 11:15:52;;;;;;;;;;;;;;;4.35;53.02;101569.94;5061935;28;19912;-85
2021/01/18 11:18:37;;;;;;;;;;;;;;;4.51;52.74;101559.06;5064051;28;19912;-89
2021/01/18 11:21:25;;;;;;;;;;;;;;;4.56;52.78;101561.81;5076521;28;20390;-86
2021/01/18 11:24:10;;;;;;;;;;;;;;;4.78;52.32;101552.84;5053939;28;19912;-85
2021/01/18 11:26:55;;;;;;;;;;;;;;;4.69;52.38;101550.63;5058667;28;19931;-85
2021/01/18 11:29:40;;;;;;;;;;;;;;;4.82;51.96;101554.78;5075359;28;19913;-85
2021/01/18 11:32:24;;;;;;;;;;;;;;;4.93;52.13;101550.28;5059493;28;19912;-85
2021/01/18 11:35:11;;;;;;;;;;;;;;;5.06;51.95;101547.97;5053121;28;19912;-85
2021/01/18 11:37:55;;;;;;;;;;;;;;;5.23;51.42;101544.31;5090496;28;19913;-85
2021/01/18 11:40:40;;;;;;;;;;;;;;;5.26;51.74;101559.97;5077275;28;19912;-83
2021/01/18 11:43:24;;;;;;;;;;;;;;;5.35;51.21;101547.63;5058366;28;20371;-84
2021/01/18 11:46:14;;;;;;;;;;;;;;;5.26;51.51;101543.81;5054966;28;19916;-85
2021/01/18 11:49:00;;;;;;;;;;;;;;;5.45;51.90;101548.50;5076448;28;19912;-85
2021/01/18 11:51:44;;;;;;;;;;;;;;;5.55;52.17;101545.88;5094164;28;20309;-85
2021/01/18 11:54:30;;;;;;;;;;;;;;;5.66;51.92;101535.94;5063447;28;19912;-86
2021/01/18 11:57:15;;;;;;;;;;;;;;;5.66;52.06;101537.84;5070049;28;19913;-84
2021/01/18 11:59:59;;;;;;;;;;;;;;;5.62;52.31;101521.38;5078437;28;19912;-85
2021/01/18 12:02:44;;;;;;;;;;;;;;;5.86;51.99;101525.25;5060227;28;20379;-84
2021/01/18 12:05:29;;;;;;;;;;;;;;;6.16;51.24;101519.16;5082349;28;19917;-86
2021/01/18 12:08:13;;;;;;;;;;;;;;;5.97;52.14;101513.44;5059765;28;19912;-86
2021/01/18 12:10:58;;;;;;;;;;;;;;;6.06;51.93;101515.63;5062878;28;19912;-84
2021/01/18 12:13:42;;;;;;;;;;;;;;;6.13;52.36;101513.50;5090310;28;19912;-85
2021/01/18 12:16:27;;;;;;;;;;;;;;;6.28;52.05;101508.94;5060196;28;19912;-85
2021/01/18 12:19:14;;;;;;;;;;;;;;;6.19;51.60;101507.03;5092330;28;19913;-85
2021/01/18 12:21:59;;;;;;;;;;;;;;;6.33;51.57;101508.16;5075731;28;19912;-85
2021/01/18 12:24:44;;;;;;;;;;;;;;;6.47;51.35;101500.31;5073461;28;19912;-85
2021/01/18 12:27:28;;;;;;;;;;;;;;;6.39;52.42;101505.19;5092390;28;19916;-85
2021/01/18 12:30:13;;;;;;;;;;;;;;;6.45;52.79;101503.28;5076116;28;19912;-85
2021/01/18 12:32:58;;;;;;;;;;;;;;;6.60;51.99;101500.63;5080715;28;19912;-85
2021/01/18 12:35:42;;;;;;;;;;;;;;;6.52;51.94;101492.22;5078309;28;19912;-85
2021/01/18 12:38:27;;;;;;;;;;;;;;;6.82;51.05;101498.44;5061967;28;19912;-85
2021/01/18 12:41:11;;;;;;;;;;;;;;;6.96;51.00;101490.59;5060197;28;19912;-85
2021/01/18 12:43:56;;;;;;;;;;;;;;;6.91;51.14;101495.22;5060220;28;19912;-83
2021/01/18 12:46:40;;;;;;;;;;;;;;;7.11;51.19;101492.50;5062548;28;19916;-82
2021/01/18 12:49:24;;;;;;;;;;;;;;;7.17;50.60;101485.97;5074545;28;20310;-82
2021/01/18 12:52:09;;;;;;;;;;;;;;;7.41;49.89;101481.59;5073828;28;19912;-81
2021/01/18 12:54:54;;;;;;;;;;;;;;;7.31;50.55;101484.34;5062068;28;19912;-82
2021/01/18 12:57:39;;;;;;;;;;;;;;;7.15;50.43;101488.16;5060923;28;20283;-82
2021/01/18 13:00:23;;;;;;;;;;;;;;;7.17;51.43;101483.28;5058741;28;19916;-80
2021/01/18 13:03:07;;;;;;;;;;;;;;;7.30;49.90;101482.72;5072760;28;19919;-82
2021/01/18 13:05:52;;;;;;;;;;;;;;;8.21;46.16;101476.91;5074955;28;19916;-82
2021/01/18 13:08:36;;;;;;;;;;;;;;;13.17;35.97;101482.47;5058450;28;20642;-82
2021/01/18 13:11:21;;;;;;;;;;;;;;;15.65;30.46;101480.13;5073861;28;19912;-81
2021/01/18 13:14:06;;;;;;;;;;;;;;;17.35;27.94;101478.22;5073281;28;19912;-82
2021/01/18 13:16:52;;;;;;;;;;;;;;;18.33;25.42;101469.56;5058856;28;19912;-83
2021/01/18 13:19:38;;;;;;;;;;;;;;;18.47;24.65;101479.38;5086648;28;19920;-82
2021/01/18 13:22:23;;;;;;;;;;;;;;;18.20;25.01;101475.41;5072422;28;19946;-82
2021/01/18 13:25:07;;;;;;;;;;;;;;;19.33;23.62;101478.59;5063989;28;19912;-82
2021/01/18 13:27:52;;;;;;;;;;;;;;;18.49;23.89;101461.31;5088087;28;19917;-80
2021/01/18 13:30:36;;;;;;;;;;;;;;;19.81;21.81;101471.88;5060280;28;19912;-82
2021/01/18 13:33:21;;;;;;;;;;;;;;;19.46;21.87;101469.09;5073213;28;19912;-82
2021/01/18 13:36:06;;;;;;;;;;;;;;;18.50;23.17;101468.44;5062761;28;19912;-82
2021/01/18 13:38:51;;;;;;;;;;;;;;;18.67;22.65;101476.44;5060700;28;19912;-82
2021/01/18 13:41:36;;;;;;;;;;;;;;;18.81;22.80;101470.50;5073729;28;19916;-80
2021/01/18 13:44:20;;;;;;;;;;;;;;;18.52;23.72;101468.91;5086535;28;19913;-81
2021/01/18 13:47:05;;;;;;;;;;;;;;;18.70;23.00;101469.41;5061003;28;20298;-82
2021/01/18 13:49:49;;;;;;;;;;;;;;;18.66;22.93;101474.03;5072196;28;19912;-83
2021/01/18 13:52:34;;;;;;;;;;;;;;;19.45;21.85;101481.31;5062608;28;19912;-83
2021/01/18 13:55:20;;;;;;;;;;;;;;;19.43;22.05;101478.06;5061386;28;19913;-82
2021/01/18 13:58:05;;;;;;;;;;;;;;;19.43;22.15;101474.50;5059426;28;19920;-83
2021/01/18 14:00:49;;;;;;;;;;;;;;;18.53;22.99;101476.03;5063020;28;19912;-82
2021/01/18 14:03:34;;;;;;;;;;;;;;;17.41;24.71;101474.09;5101807;22;20390;-87
2021/01/18 14:06:25;;;;;;;;;;;;;;;17.08;25.18;101472.22;5094437;28;19916;-87
2021/01/18 14:09:14;;;;;;;;;;;;;;;17.53;25.05;101474.09;5099434;28;19927;-87
2021/01/18 14:11:58;;;;;;;;;;;;;;;18.56;23.43;101485.56;5088002;28;19912;-87
2021/01/18 14:14:43;;;;;;;;;;;;;;;18.08;23.93;101480.97;5099259;28;19912;-87
2021/01/18 14:17:27;;;;;;;;;;;;;;;18.27;24.03;101483.91;5084351;28;19912;-87
2021/01/18 14:20:12;;;;;;;;;;;;;;;17.49;24.72;101476.72;5089071;28;19920;-87
2021/01/18 14:22:56;;;;;;;;;;;;;;;16.77;26.35;101493.06;5104602;28;20382;-87
2021/01/18 14:25:41;;;;;;;;;;;;;;;15.78;27.77;101485.41;5108025;28;19916;-86
2021/01/18 14:28:26;;;;;;;;;;;;;;;15.37;28.75;101486.03;5097330;28;20290;-86
2021/01/18 14:31:10;;;;;;;;;;;;;;;14.89;29.31;101482.78;5094122;28;19915;-86